CFL03 NZAP-NZAP

Flight info

Callsign CFL03
Flight time N/A
Altitude 10000
Route VFR
Aircraft EC45/L-SFG/C

Departure

Time 2026-04-30 10:37
Airport Taupo Airport (NZAP)

Arrival

Time N/A
Airport Taupo Airport (NZAP)
Time Latitude Longitude Altitude Speed Heading
2026-04-30 10:30 -38.73896 176.08266 1326 ft 0 kts 39°
2026-04-30 10:36 -38.73927 176.08255 1381 ft 10 kts 141°
2026-04-30 10:36 -38.73986 176.08357 1493 ft 27 kts 135°
2026-04-30 10:37 -38.74075 176.08417 1563 ft 35 kts 168°
2026-04-30 10:37 -38.74446 176.08200 1742 ft 74 kts 214°
2026-04-30 10:37 -38.74837 176.07536 1690 ft 119 kts 236°
2026-04-30 10:37 -38.75169 176.06602 1954 ft 107 kts 243°
2026-04-30 10:38 -38.75604 176.05910 2273 ft 96 kts 214°
2026-04-30 10:38 -38.76243 176.05597 2421 ft 102 kts 182°
2026-04-30 10:38 -38.76778 176.05684 2528 ft 103 kts 163°
2026-04-30 10:38 -38.77476 176.05924 2693 ft 104 kts 161°
2026-04-30 10:39 -38.78172 176.06180 2856 ft 104 kts 161°
2026-04-30 10:39 -38.78715 176.06383 2980 ft 104 kts 161°
2026-04-30 10:39 -38.79406 176.06644 3136 ft 105 kts 161°
2026-04-30 10:39 -38.80114 176.06914 3290 ft 105 kts 159°
2026-04-30 10:40 -38.80809 176.07182 3438 ft 105 kts 160°
2026-04-30 10:40 -38.81519 176.07443 3873 ft 108 kts 166°
2026-04-30 10:40 -38.82231 176.07689 4346 ft 108 kts 168°
2026-04-30 10:40 -38.82962 176.07851 4732 ft 110 kts 185°
2026-04-30 10:41 -38.83554 176.07216 5080 ft 122 kts 244°
2026-04-30 10:41 -38.83455 176.06134 5449 ft 128 kts 304°
2026-04-30 10:41 -38.82717 176.05583 5801 ft 126 kts 356°
2026-04-30 10:41 -38.81863 176.05379 6152 ft 126 kts 357°
2026-04-30 10:42 -38.80990 176.05159 6500 ft 127 kts 356°
2026-04-30 10:42 -38.80130 176.04919 6833 ft 128 kts 355°
2026-04-30 10:42 -38.79260 176.04666 7154 ft 128 kts 359°
2026-04-30 10:42 -38.78381 176.04405 7444 ft 132 kts 354°
2026-04-30 10:43 -38.77407 176.04115 7362 ft 150 kts 351°
2026-04-30 10:43 -38.76367 176.03787 7297 ft 157 kts 350°
2026-04-30 10:43 -38.75311 176.03456 7275 ft 157 kts 351°
2026-04-30 10:43 -38.74256 176.03131 7271 ft 156 kts 351°
2026-04-30 10:44 -38.73183 176.02805 7270 ft 156 kts 351°
2026-04-30 10:44 -38.72127 176.02484 7270 ft 156 kts 351°
2026-04-30 10:44 -38.71077 176.02167 7269 ft 156 kts 351°
2026-04-30 10:44 -38.70020 176.01848 7270 ft 156 kts 351°
2026-04-30 10:45 -38.68967 176.01527 7270 ft 156 kts 351°
2026-04-30 10:45 -38.67908 176.01207 7259 ft 157 kts 352°
2026-04-30 10:45 -38.66814 176.00877 7067 ft 161 kts 350°
2026-04-30 10:45 -38.65748 176.00545 7004 ft 153 kts 349°
2026-04-30 10:46 -38.64736 176.00230 7005 ft 148 kts 350°
2026-04-30 10:46 -38.63704 175.99921 6826 ft 155 kts 350°
2026-04-30 10:46 -38.62635 175.99596 6646 ft 158 kts 349°
2026-04-30 10:46 -38.61585 175.99272 6447 ft 154 kts 348°
2026-04-30 10:47 -38.60562 175.98953 6244 ft 148 kts 347°
2026-04-30 10:47 -38.59563 175.98886 5861 ft 142 kts 14°
2026-04-30 10:47 -38.58764 175.99509 5545 ft 128 kts 52°
2026-04-30 10:47 -38.58495 176.00513 5389 ft 118 kts 91°
2026-04-30 10:48 -38.58661 176.01521 5277 ft 114 kts 100°
2026-04-30 10:48 -38.58774 176.02519 5182 ft 113 kts 95°
2026-04-30 10:48 -38.58835 176.03534 5082 ft 113 kts 93°
2026-04-30 10:48 -38.58867 176.04540 4981 ft 114 kts 91°
2026-04-30 10:49 -38.58883 176.05566 4876 ft 114 kts 90°
2026-04-30 10:49 -38.58890 176.06567 4762 ft 110 kts 90°
2026-04-30 10:49 -38.58892 176.07544 4658 ft 109 kts 90°
2026-04-30 10:49 -38.59094 176.08462 4485 ft 109 kts 122°
2026-04-30 10:50 -38.59714 176.09009 4217 ft 111 kts 155°
2026-04-30 10:50 -38.60477 176.09087 4020 ft 109 kts 171°
2026-04-30 10:50 -38.61250 176.09096 3845 ft 113 kts 171°
2026-04-30 10:50 -38.62047 176.09100 3662 ft 115 kts 172°
2026-04-30 10:51 -38.62865 176.09106 3484 ft 117 kts 172°
2026-04-30 10:51 -38.63687 176.09108 3303 ft 120 kts 172°
2026-04-30 10:51 -38.64529 176.09106 3123 ft 120 kts 173°
2026-04-30 10:51 -38.65354 176.09102 3049 ft 115 kts 173°
2026-04-30 10:52 -38.66146 176.09099 2972 ft 113 kts 173°
2026-04-30 10:52 -38.66944 176.09097 2820 ft 118 kts 173°
2026-04-30 10:52 -38.67786 176.09100 2539 ft 122 kts 171°
2026-04-30 10:52 -38.68606 176.09103 2314 ft 116 kts 172°
2026-04-30 10:53 -38.69405 176.09103 2113 ft 115 kts 172°
2026-04-30 10:53 -38.70209 176.09105 1894 ft 117 kts 172°
2026-04-30 10:53 -38.71017 176.09106 1733 ft 114 kts 173°
2026-04-30 10:53 -38.71806 176.09106 1677 ft 111 kts 173°
2026-04-30 10:54 -38.72569 176.08948 1633 ft 110 kts 186°
2026-04-30 10:54 -38.73290 176.08771 1745 ft 100 kts 184°
2026-04-30 10:54 -38.73980 176.08575 1829 ft 103 kts 188°
2026-04-30 10:54 -38.74693 176.08342 2047 ft 105 kts 189°
2026-04-30 10:55 -38.75402 176.08102 2274 ft 105 kts 189°
2026-04-30 10:55 -38.76107 176.07860 2491 ft 105 kts 189°
2026-04-30 10:55 -38.76810 176.07616 2705 ft 106 kts 189°
2026-04-30 10:55 -38.77528 176.07364 2975 ft 107 kts 191°
2026-04-30 10:56 -38.78242 176.07106 3253 ft 109 kts 191°
2026-04-30 10:56 -38.78991 176.06838 3511 ft 111 kts 191°
2026-04-30 10:56 -38.79734 176.06576 3769 ft 112 kts 192°
2026-04-30 10:56 -38.80494 176.06300 4178 ft 115 kts 195°
2026-04-30 10:57 -38.81242 176.06024 4513 ft 111 kts 191°
2026-04-30 10:57 -38.81990 176.05765 4742 ft 115 kts 191°
2026-04-30 10:57 -38.82818 176.05456 4775 ft 131 kts 198°
2026-04-30 10:57 -38.83427 176.04570 4773 ft 142 kts 246°
2026-04-30 10:58 -38.83592 176.03281 4799 ft 147 kts 261°
2026-04-30 10:58 -38.83687 176.01964 4800 ft 149 kts 262°
2026-04-30 10:58 -38.83769 176.00619 4801 ft 150 kts 262°
2026-04-30 10:58 -38.83844 175.99289 4801 ft 150 kts 263°
2026-04-30 10:59 -38.83919 175.97931 4800 ft 150 kts 264°
2026-04-30 10:59 -38.83986 175.96605 4799 ft 150 kts 264°
2026-04-30 10:59 -38.84053 175.95274 4799 ft 150 kts 264°
2026-04-30 10:59 -38.84124 175.93930 4800 ft 150 kts 263°
2026-04-30 11:00 -38.84199 175.92587 4801 ft 150 kts 263°
2026-04-30 11:00 -38.84271 175.91243 4801 ft 150 kts 263°
2026-04-30 11:00 -38.84329 175.89909 4793 ft 152 kts 270°
2026-04-30 11:00 -38.83876 175.88709 4785 ft 150 kts 313°
2026-04-30 11:01 -38.83138 175.87767 4801 ft 151 kts 316°
2026-04-30 11:01 -38.82369 175.86813 4801 ft 152 kts 316°
2026-04-30 11:01 -38.81610 175.85873 4801 ft 152 kts 316°
2026-04-30 11:01 -38.80851 175.84932 4801 ft 152 kts 319°
2026-04-30 11:02 -38.80086 175.83984 4722 ft 145 kts 310°
2026-04-30 11:02 -38.79974 175.83817 4598 ft 133 kts 285°
2026-04-30 11:02 -38.79955 175.83783 4564 ft 129 kts 290°
2026-04-30 11:02 -38.79561 175.83057 2711 ft 130 kts 323°